createdAt,value
2022-11-15T00:00:49.855Z,38.13
2022-11-15T00:03:17.344Z,45.42
2022-11-15T00:05:44.894Z,37.53
2022-11-15T00:08:12.666Z,37.80
2022-11-15T00:10:40.242Z,43.25
2022-11-15T00:13:08.182Z,41.92
2022-11-15T00:15:36.725Z,39.90
2022-11-15T00:18:05.801Z,41.00
2022-11-15T00:20:33.265Z,41.03
2022-11-15T00:23:00.717Z,41.08
2022-11-15T00:25:28.215Z,39.60
2022-11-15T00:27:57.060Z,38.35
2022-11-15T00:30:24.622Z,42.20
2022-11-15T00:32:52.110Z,37.60
2022-11-15T00:35:20.965Z,39.50
2022-11-15T00:37:48.614Z,41.90
2022-11-15T00:40:16.312Z,37.50
2022-11-15T00:42:43.873Z,38.42
2022-11-15T00:45:11.809Z,40.67
2022-11-15T00:47:39.264Z,37.97
2022-11-15T00:50:07.089Z,40.85
2022-11-15T00:52:35.899Z,37.35
2022-11-15T00:55:03.499Z,34.83
2022-11-15T00:57:31.022Z,41.53
2022-11-15T00:59:58.480Z,39.80
2022-11-15T01:02:25.994Z,38.80
2022-11-15T01:04:53.476Z,38.50
2022-11-15T01:07:21.038Z,38.30
2022-11-15T01:09:49.964Z,35.20
2022-11-15T01:12:17.441Z,39.90
2022-11-15T01:14:44.938Z,40.20
2022-11-15T01:17:12.425Z,35.78
2022-11-15T01:19:39.938Z,37.67
2022-11-15T01:22:07.463Z,39.65
2022-11-15T01:24:34.952Z,40.20
2022-11-15T01:27:03.848Z,38.58
2022-11-15T01:29:31.303Z,35.78
2022-11-15T01:31:58.811Z,41.03
2022-11-15T01:34:26.310Z,38.67
2022-11-15T01:36:53.789Z,39.05
2022-11-15T01:39:21.274Z,40.95
2022-11-15T01:41:48.725Z,39.42
2022-11-15T01:44:40.754Z,39.05
2022-11-15T01:47:09.558Z,36.60
2022-11-15T01:49:39.692Z,42.70
2022-11-15T01:52:09.194Z,39.65
2022-11-15T01:54:36.746Z,39.13
2022-11-15T01:57:06.094Z,39.65
2022-11-15T01:59:35.554Z,40.67
2022-11-15T02:02:03.060Z,40.90
2022-11-15T02:04:31.460Z,39.00
2022-11-15T02:06:59.051Z,34.40
2022-11-15T02:09:26.588Z,43.97
2022-11-15T02:11:56.029Z,37.90
2022-11-15T02:14:25.106Z,40.45
2022-11-15T02:16:55.673Z,38.97
2022-11-15T02:19:31.165Z,38.75
2022-11-15T02:22:07.150Z,37.58
2022-11-15T02:24:46.397Z,39.80
2022-11-15T02:27:24.266Z,42.60
2022-11-15T02:30:05.082Z,45.90
2022-11-15T02:32:36.510Z,40.65
2022-11-15T02:37:39.171Z,40.95
2022-11-15T02:40:12.576Z,43.15
2022-11-15T02:43:05.632Z,39.97
2022-11-15T02:45:38.559Z,41.08
2022-11-15T02:48:08.108Z,41.72
2022-11-15T02:50:36.209Z,40.65
2022-11-15T02:53:03.806Z,40.03
2022-11-15T02:55:32.114Z,37.63
2022-11-15T02:58:07.273Z,46.67
2022-11-15T03:00:36.921Z,40.58
2022-11-15T03:03:18.928Z,41.80
2022-11-15T03:05:50.362Z,43.75
2022-11-15T03:08:21.234Z,37.03
2022-11-15T03:10:54.262Z,40.75
2022-11-15T03:13:25.488Z,41.60
2022-11-15T03:15:57.562Z,39.63
2022-11-15T03:18:30.535Z,39.55
2022-11-15T03:21:00.002Z,39.03
2022-11-15T03:23:28.120Z,43.42
2022-11-15T03:25:56.908Z,39.30
2022-11-15T03:28:25.899Z,40.60
2022-11-15T03:30:54.909Z,39.28
2022-11-15T03:33:23.304Z,39.65
2022-11-15T03:35:53.296Z,39.00
2022-11-15T03:38:23.775Z,39.80
2022-11-15T03:40:56.249Z,42.30
2022-11-15T03:43:25.829Z,35.08
2022-11-15T03:45:56.530Z,38.88
2022-11-15T03:48:25.990Z,37.17
2022-11-15T03:50:55.333Z,38.58
2022-11-15T03:53:22.854Z,39.13
2022-11-15T03:55:50.301Z,40.25
2022-11-15T03:58:17.866Z,37.80
2022-11-15T04:00:45.432Z,35.70
2022-11-15T04:03:12.872Z,39.30
2022-11-15T04:05:41.482Z,43.13
2022-11-15T04:08:10.283Z,37.72
2022-11-15T04:10:37.782Z,40.42
2022-11-15T04:13:05.281Z,42.35
2022-11-15T04:15:32.814Z,39.13
2022-11-15T04:18:00.276Z,42.40
2022-11-15T04:20:46.087Z,42.95
2022-11-15T04:23:33.576Z,38.03
2022-11-15T04:26:02.049Z,39.80
2022-11-15T04:28:29.789Z,43.75
2022-11-15T04:30:57.277Z,40.65
2022-11-15T04:33:25.112Z,43.33
2022-11-15T04:36:06.569Z,42.47
2022-11-15T04:38:35.408Z,43.83
2022-11-15T04:41:02.982Z,41.97
2022-11-15T04:43:30.773Z,46.83
2022-11-15T04:45:58.505Z,39.78
2022-11-15T04:48:25.953Z,42.40
2022-11-15T04:50:53.468Z,39.13
2022-11-15T04:53:20.983Z,41.63
2022-11-15T04:55:49.839Z,37.95
2022-11-15T04:58:17.328Z,41.63
2022-11-15T05:00:44.791Z,42.10
2022-11-15T05:03:30.049Z,39.13
2022-11-15T05:05:57.664Z,41.33
2022-11-15T05:08:25.132Z,43.65
2022-11-15T05:10:53.988Z,38.40
2022-11-15T05:13:21.490Z,38.55
2022-11-15T05:15:48.984Z,39.00
2022-11-15T05:18:22.179Z,39.50
2022-11-15T05:20:50.916Z,37.17
2022-11-15T05:23:18.390Z,43.45
2022-11-15T05:25:45.850Z,44.90
2022-11-15T05:28:14.859Z,39.72
2022-11-15T05:30:42.308Z,42.08
2022-11-15T05:33:09.859Z,43.78
2022-11-15T05:35:40.918Z,41.03
2022-11-15T05:38:08.708Z,43.80
2022-11-15T05:40:36.458Z,39.63
2022-11-15T05:43:05.094Z,40.83
2022-11-15T05:45:35.342Z,38.08
2022-11-15T05:48:03.496Z,42.63
2022-11-15T05:50:30.966Z,45.53
2022-11-15T05:53:02.290Z,41.53
2022-11-15T05:55:32.884Z,38.83
2022-11-15T05:58:00.452Z,40.88
2022-11-15T06:00:27.973Z,42.83
2022-11-15T06:02:56.797Z,44.63
2022-11-15T06:05:24.326Z,40.45
2022-11-15T06:07:51.822Z,39.20
2022-11-15T06:10:19.275Z,42.25
2022-11-15T06:12:46.769Z,39.22
2022-11-15T06:15:14.236Z,37.15
2022-11-15T06:17:41.728Z,42.30
2022-11-15T06:20:11.345Z,42.60
2022-11-15T06:22:38.790Z,39.25
2022-11-15T06:25:06.500Z,41.58
2022-11-15T06:27:34.079Z,42.60
2022-11-15T06:30:01.531Z,44.17
2022-11-15T06:32:28.997Z,39.03
2022-11-15T06:34:56.449Z,41.55
2022-11-15T06:37:25.289Z,43.47
2022-11-15T06:39:52.769Z,40.47
2022-11-15T06:42:20.250Z,39.60
2022-11-15T06:44:47.680Z,41.28
2022-11-15T06:47:15.108Z,39.15
2022-11-15T06:49:42.505Z,39.67
2022-11-15T06:52:10.009Z,38.83
2022-11-15T06:54:38.801Z,41.70
2022-11-15T06:57:06.371Z,40.63
2022-11-15T06:59:37.823Z,40.15
2022-11-15T07:02:07.880Z,43.17
2022-11-15T07:04:37.073Z,43.60
2022-11-15T07:07:04.593Z,42.42
2022-11-15T07:09:32.121Z,39.70
2022-11-15T07:12:06.234Z,41.55
2022-11-15T07:14:35.374Z,39.30
2022-11-15T07:17:05.059Z,41.17
2022-11-15T07:19:32.703Z,42.78
2022-11-15T07:22:00.216Z,43.55
2022-11-15T07:24:27.813Z,40.33
2022-11-15T07:26:55.342Z,40.35
2022-11-15T07:29:24.277Z,41.63
2022-11-15T07:31:51.768Z,47.08
2022-11-15T07:34:19.228Z,47.85
2022-11-15T07:36:46.755Z,47.13
2022-11-15T07:39:15.025Z,47.85
2022-11-15T07:41:44.359Z,47.78
2022-11-15T07:44:11.825Z,44.53
2022-11-15T07:46:40.649Z,48.30
2022-11-15T07:49:08.147Z,43.00
2022-11-15T07:51:35.613Z,47.78
2022-11-15T07:54:03.191Z,47.50
2022-11-15T07:56:30.646Z,47.10
2022-11-15T07:58:58.419Z,48.08
2022-11-15T08:01:26.001Z,49.20
2022-11-15T08:03:54.930Z,47.47
2022-11-15T08:06:22.431Z,47.75
2022-11-15T08:08:49.975Z,51.75
2022-11-15T08:11:17.447Z,48.15
2022-11-15T08:13:44.935Z,45.85
2022-11-15T08:16:12.929Z,45.35
2022-11-15T08:18:40.446Z,52.00
2022-11-15T08:21:15.616Z,46.92
2022-11-15T08:26:13.038Z,41.30
2022-11-15T08:28:40.456Z,49.25
2022-11-15T08:31:08.005Z,45.42
2022-11-15T08:33:35.731Z,45.80
2022-11-15T08:36:03.786Z,47.80
2022-11-15T08:38:33.146Z,47.35
2022-11-15T08:41:02.935Z,47.40
2022-11-15T08:43:30.749Z,49.00
2022-11-15T08:45:58.670Z,49.17
2022-11-15T08:48:26.132Z,49.65
2022-11-15T08:50:55.966Z,46.17
2022-11-15T08:53:23.621Z,47.00
2022-11-15T08:55:52.487Z,46.58
2022-11-15T08:58:20.015Z,45.42
2022-11-15T09:00:47.541Z,47.30
2022-11-15T09:03:15.458Z,45.70
2022-11-15T09:05:43.035Z,45.85
2022-11-15T09:08:32.804Z,45.67
2022-11-15T09:10:59.285Z,43.75
2022-11-15T09:13:26.796Z,43.78
2022-11-15T09:15:54.265Z,39.45
2022-11-15T09:18:23.280Z,40.42
2022-11-15T09:20:50.754Z,40.88
2022-11-15T09:23:18.353Z,35.88
2022-11-15T09:25:45.808Z,39.60
2022-11-15T09:28:14.673Z,38.35
2022-11-15T09:30:42.157Z,37.35
2022-11-15T09:33:09.782Z,38.53
2022-11-15T09:35:37.627Z,37.78
2022-11-15T09:38:05.174Z,35.40
2022-11-15T09:40:33.189Z,37.05
2022-11-15T09:43:06.108Z,35.70
2022-11-15T09:45:39.141Z,40.70
2022-11-15T09:48:13.067Z,33.88
2022-11-15T09:50:41.983Z,33.85
2022-11-15T09:53:11.918Z,30.38
2022-11-15T09:55:42.875Z,30.80
2022-11-15T09:58:17.821Z,30.48
2022-11-15T10:00:49.498Z,30.95
2022-11-15T10:03:18.617Z,27.08
2022-11-15T10:05:47.422Z,32.33
2022-11-15T10:08:23.433Z,29.17
2022-11-15T10:11:09.634Z,27.75
2022-11-15T10:13:43.318Z,26.23
2022-11-15T10:16:19.658Z,28.00
2022-11-15T10:18:55.968Z,26.27
2022-11-15T10:21:34.651Z,28.95
2022-11-15T10:24:02.152Z,26.83
2022-11-15T10:26:29.716Z,27.23
2022-11-15T10:28:57.147Z,24.85
2022-11-15T10:31:26.968Z,24.25
2022-11-15T10:33:59.182Z,27.05
2022-11-15T10:36:26.797Z,23.10
2022-11-15T10:38:58.688Z,22.83
2022-11-15T10:41:44.023Z,23.38
2022-11-15T10:44:22.334Z,23.17
2022-11-15T10:47:05.944Z,23.58
2022-11-15T10:49:34.339Z,25.10
2022-11-15T10:52:03.688Z,23.70
2022-11-15T10:54:32.598Z,23.67
2022-11-15T10:57:01.356Z,24.55
2022-11-15T10:59:31.825Z,23.52
2022-11-15T11:02:03.702Z,22.13
2022-11-15T11:04:31.194Z,23.65
2022-11-15T11:06:59.433Z,27.95
2022-11-15T11:09:32.541Z,22.70
2022-11-15T11:12:00.264Z,22.40
2022-11-15T11:14:29.127Z,21.52
2022-11-15T11:16:58.682Z,22.67
2022-11-15T11:19:46.074Z,18.63
2022-11-15T11:22:18.678Z,21.45
2022-11-15T11:24:49.545Z,21.27
2022-11-15T11:29:51.678Z,21.77
2022-11-15T11:32:27.071Z,22.13
2022-11-15T11:35:00.818Z,19.20
2022-11-15T11:37:31.379Z,20.10
2022-11-15T11:40:10.329Z,17.20
2022-11-15T11:42:43.135Z,18.98
2022-11-15T11:45:16.844Z,17.23
2022-11-15T11:47:48.472Z,18.83
2022-11-15T11:50:19.455Z,15.88
2022-11-15T11:52:54.117Z,21.45
2022-11-15T11:55:23.979Z,16.35
2022-11-15T11:57:54.082Z,16.50
2022-11-15T12:00:22.774Z,16.70
2022-11-15T12:02:55.538Z,15.55
2022-11-15T12:05:30.966Z,17.90
2022-11-15T12:08:04.385Z,17.42
2022-11-15T12:10:34.518Z,12.77
2022-11-15T12:13:04.281Z,15.60
2022-11-15T12:15:34.097Z,12.40
2022-11-15T12:18:02.378Z,16.55
2022-11-15T12:20:34.955Z,13.70
2022-11-15T12:23:07.428Z,12.45
2022-11-15T12:25:40.337Z,13.63
2022-11-15T12:28:09.686Z,14.55
2022-11-15T12:30:44.557Z,14.77
2022-11-15T12:33:26.910Z,12.65
2022-11-15T12:36:00.802Z,14.55
2022-11-15T12:38:43.525Z,13.90
2022-11-15T12:41:15.289Z,12.82
2022-11-15T12:43:43.549Z,12.10
2022-11-15T12:46:28.942Z,11.88
2022-11-15T12:48:57.899Z,14.50
2022-11-15T12:51:40.253Z,13.15
2022-11-15T12:54:22.589Z,12.40
2022-11-15T12:57:14.123Z,13.57
2022-11-15T12:59:51.086Z,11.10
2022-11-15T13:02:20.032Z,11.20
2022-11-15T13:04:47.467Z,11.52
2022-11-15T13:07:38.920Z,9.65
2022-11-15T13:10:30.390Z,10.57
2022-11-15T13:12:59.879Z,11.52
2022-11-15T13:15:42.443Z,14.80
2022-11-15T13:20:37.916Z,14.10
2022-11-15T13:23:09.853Z,12.02
2022-11-15T13:25:50.684Z,11.90
2022-11-15T13:28:24.602Z,13.75
2022-11-15T13:30:53.425Z,10.50
2022-11-15T13:33:22.927Z,12.98
2022-11-15T13:35:52.095Z,10.02
2022-11-15T13:38:21.844Z,12.68
2022-11-15T13:40:49.319Z,12.73
2022-11-15T13:43:25.697Z,13.43
2022-11-15T13:46:06.945Z,9.02
2022-11-15T13:48:35.128Z,11.68
2022-11-15T13:51:03.555Z,13.00
2022-11-15T13:53:32.485Z,10.68
2022-11-15T13:56:00.295Z,10.45
2022-11-15T13:58:27.888Z,10.57
2022-11-15T14:01:00.950Z,11.00
2022-11-15T14:03:30.643Z,9.73
2022-11-15T14:06:04.918Z,12.48
2022-11-15T14:08:32.674Z,10.80
2022-11-15T14:11:10.624Z,9.77
2022-11-15T14:13:38.206Z,12.18
2022-11-15T14:16:16.048Z,10.00
2022-11-15T14:18:46.179Z,15.70
2022-11-15T14:21:13.679Z,19.00
2022-11-15T14:23:41.169Z,10.77
2022-11-15T14:26:13.656Z,14.25
2022-11-15T14:28:41.134Z,13.15
2022-11-15T14:31:12.960Z,11.95
2022-11-15T14:33:41.047Z,14.85
2022-11-15T14:36:14.058Z,14.85
2022-11-15T14:38:43.677Z,12.68
2022-11-15T14:41:18.865Z,13.80
2022-11-15T14:43:46.303Z,10.80
2022-11-15T14:46:13.756Z,13.45
2022-11-15T14:48:41.359Z,13.57
2022-11-15T14:51:13.670Z,11.50
2022-11-15T14:53:43.444Z,13.45
2022-11-15T14:56:11.112Z,13.93
2022-11-15T14:58:38.601Z,12.15
2022-11-15T15:01:12.823Z,17.45
2022-11-15T15:03:40.317Z,18.08
2022-11-15T15:06:13.620Z,16.70
2022-11-15T15:08:45.408Z,13.95
2022-11-15T15:11:15.736Z,15.52
2022-11-15T15:13:43.226Z,17.88
2022-11-15T15:16:10.702Z,14.98
2022-11-15T15:18:38.177Z,18.05
2022-11-15T15:21:22.552Z,18.88
2022-11-15T15:23:51.704Z,15.68
2022-11-15T15:26:19.542Z,16.02
2022-11-15T15:28:47.017Z,15.80
2022-11-15T15:31:14.487Z,17.95
2022-11-15T15:33:42.103Z,16.85
2022-11-15T15:36:11.367Z,17.15
2022-11-15T15:38:38.860Z,16.98
2022-11-15T15:41:10.106Z,16.73
2022-11-15T15:43:37.569Z,16.88
2022-11-15T15:46:05.121Z,17.48
2022-11-15T15:48:34.743Z,17.35
2022-11-15T15:51:07.296Z,17.65
2022-11-15T15:53:38.967Z,18.23
2022-11-15T15:56:08.946Z,15.95
2022-11-15T15:58:36.517Z,16.58
2022-11-15T16:01:04.163Z,19.35
2022-11-15T16:03:32.146Z,18.30
2022-11-15T16:06:00.162Z,17.67
2022-11-15T16:08:42.641Z,17.00
2022-11-15T16:11:19.217Z,19.80
2022-11-15T16:13:46.671Z,18.42
2022-11-15T16:16:15.005Z,19.05
2022-11-15T16:18:43.404Z,18.08
2022-11-15T16:21:10.949Z,17.92
2022-11-15T16:23:38.407Z,17.75
2022-11-15T16:26:22.714Z,19.25
2022-11-15T16:28:51.624Z,20.15
2022-11-15T16:31:21.311Z,19.95
2022-11-15T16:33:48.832Z,17.33
2022-11-15T16:36:23.336Z,22.92
2022-11-15T16:38:53.541Z,20.92
2022-11-15T16:41:21.004Z,20.17
2022-11-15T16:43:48.809Z,19.95
2022-11-15T16:46:18.782Z,23.98
2022-11-15T16:48:46.269Z,21.48
2022-11-15T16:51:13.760Z,26.13
2022-11-15T16:53:41.394Z,25.80
2022-11-15T16:56:19.242Z,29.50
2022-11-15T16:58:46.714Z,25.55
2022-11-15T17:01:19.078Z,27.08
2022-11-15T17:03:46.553Z,28.17
2022-11-15T17:06:14.625Z,29.73
2022-11-15T17:08:42.362Z,29.48
2022-11-15T17:11:09.858Z,29.70
2022-11-15T17:13:37.360Z,31.77
2022-11-15T17:16:05.717Z,33.15
2022-11-15T17:18:34.656Z,35.15
2022-11-15T17:21:06.371Z,35.08
2022-11-15T17:23:34.570Z,33.42
2022-11-15T17:26:23.817Z,39.03
2022-11-15T17:28:55.396Z,40.38
2022-11-15T17:33:50.368Z,39.47
2022-11-15T17:36:19.231Z,41.83
2022-11-15T17:38:50.263Z,44.63
2022-11-15T17:41:17.704Z,39.42
2022-11-15T17:43:45.201Z,41.30
2022-11-15T17:46:14.294Z,39.95
2022-11-15T17:48:41.885Z,40.83
2022-11-15T17:51:11.169Z,42.22
2022-11-15T17:53:40.736Z,42.40
2022-11-15T17:56:09.556Z,41.95
2022-11-15T17:58:37.034Z,47.15
2022-11-15T18:01:08.069Z,43.75
2022-11-15T18:03:36.255Z,42.92
2022-11-15T18:06:03.937Z,46.03
2022-11-15T18:08:31.445Z,49.55
2022-11-15T18:11:08.743Z,47.75
2022-11-15T18:13:36.435Z,47.80
2022-11-15T18:16:04.467Z,43.08
2022-11-15T18:18:32.743Z,42.63
2022-11-15T18:21:01.093Z,44.83
2022-11-15T18:23:28.632Z,42.25
2022-11-15T18:25:56.099Z,48.95
2022-11-15T18:28:30.205Z,44.60
2022-11-15T18:30:57.857Z,48.55
2022-11-15T18:33:25.365Z,48.63
2022-11-15T18:35:59.211Z,46.67
2022-11-15T18:38:30.489Z,43.15
2022-11-15T18:40:59.537Z,46.63
2022-11-15T18:43:28.440Z,44.85
2022-11-15T18:45:55.935Z,47.88
2022-11-15T18:48:23.379Z,45.78
2022-11-15T18:50:53.901Z,44.58
2022-11-15T18:53:21.587Z,47.65
2022-11-15T18:55:49.079Z,44.30
2022-11-15T18:58:16.586Z,46.40
2022-11-15T19:00:45.429Z,49.70
2022-11-15T19:03:13.009Z,49.47
2022-11-15T19:05:40.462Z,47.83
2022-11-15T19:08:07.955Z,47.28
2022-11-15T19:10:35.580Z,53.10
2022-11-15T19:13:03.061Z,54.47
2022-11-15T19:15:31.871Z,55.35
2022-11-15T19:18:01.624Z,58.83
2022-11-15T19:20:29.061Z,58.90
2022-11-15T19:22:56.758Z,55.05
2022-11-15T19:25:28.691Z,61.28
2022-11-15T19:27:56.266Z,65.60
2022-11-15T19:30:23.750Z,56.33
2022-11-15T19:32:51.206Z,57.35
2022-11-15T19:35:19.997Z,61.33
2022-11-15T19:37:47.514Z,64.97
2022-11-15T19:40:15.128Z,61.30
2022-11-15T19:42:42.571Z,57.90
2022-11-15T19:45:10.570Z,58.60
2022-11-15T19:47:38.044Z,61.28
2022-11-15T19:50:05.817Z,56.35
2022-11-15T19:52:34.630Z,57.90
2022-11-15T19:55:02.364Z,52.50
2022-11-15T19:57:29.830Z,54.78
2022-11-15T19:59:57.289Z,57.38
2022-11-15T20:02:24.769Z,50.40
2022-11-15T20:04:52.234Z,56.42
2022-11-15T20:07:19.880Z,50.92
2022-11-15T20:09:48.760Z,51.28
2022-11-15T20:12:16.202Z,54.00
2022-11-15T20:14:45.864Z,49.20
2022-11-15T20:17:13.851Z,45.58
2022-11-15T20:19:41.335Z,50.53
2022-11-15T20:22:08.800Z,45.97
2022-11-15T20:24:36.246Z,42.13
2022-11-15T20:27:05.403Z,43.70
2022-11-15T20:29:32.846Z,45.38
2022-11-15T20:32:00.304Z,44.05
2022-11-15T20:34:28.301Z,43.40
2022-11-15T20:36:55.810Z,44.95
2022-11-15T20:39:23.961Z,41.90
2022-11-15T20:41:51.460Z,42.10
2022-11-15T20:44:20.342Z,42.38
2022-11-15T20:46:47.971Z,45.92
2022-11-15T20:49:15.408Z,38.38
2022-11-15T20:51:42.935Z,43.70
2022-11-15T20:54:10.387Z,43.78
2022-11-15T20:56:37.838Z,39.40
2022-11-15T20:59:05.299Z,39.08
2022-11-15T21:01:34.325Z,40.25
2022-11-15T21:04:01.841Z,39.60
2022-11-15T21:06:29.349Z,41.03
2022-11-15T21:09:14.559Z,38.83
2022-11-15T21:11:59.946Z,41.40
2022-11-15T21:14:27.412Z,40.33
2022-11-15T21:16:56.246Z,39.95
2022-11-15T21:19:29.058Z,40.70
2022-11-15T21:22:00.214Z,42.30
2022-11-15T21:24:27.727Z,46.00
2022-11-15T21:26:55.458Z,46.55
2022-11-15T21:29:23.001Z,40.60
2022-11-15T21:31:51.273Z,43.92
2022-11-15T21:34:20.525Z,47.20
2022-11-15T21:36:47.986Z,44.13
2022-11-15T21:39:15.429Z,44.22
2022-11-15T21:41:42.884Z,41.83
2022-11-15T21:44:10.369Z,42.88
2022-11-15T21:46:38.125Z,43.60
2022-11-15T21:49:06.174Z,44.92
2022-11-15T21:51:35.200Z,41.03
2022-11-15T21:54:02.965Z,41.47
2022-11-15T21:56:30.828Z,37.55
2022-11-15T21:58:58.309Z,44.08
2022-11-15T22:01:40.513Z,40.67
2022-11-15T22:04:08.078Z,42.70
2022-11-15T22:06:37.068Z,36.70
2022-11-15T22:09:04.968Z,37.40
2022-11-15T22:11:32.709Z,42.10
2022-11-15T22:14:00.227Z,44.47
2022-11-15T22:16:27.545Z,36.80
2022-11-15T22:18:55.150Z,40.63
2022-11-15T22:21:22.494Z,37.63
2022-11-15T22:23:51.186Z,39.35
2022-11-15T22:26:23.222Z,40.53
2022-11-15T22:28:51.337Z,41.95
2022-11-15T22:31:18.679Z,40.65
2022-11-15T22:33:46.033Z,40.70
2022-11-15T22:36:14.032Z,48.58
2022-11-15T22:38:41.438Z,42.25
2022-11-15T22:41:10.110Z,49.60
2022-11-15T22:43:37.800Z,42.53
2022-11-15T22:46:05.226Z,50.08
2022-11-15T22:48:34.407Z,44.00
2022-11-15T22:51:02.444Z,46.63
2022-11-15T22:53:30.040Z,47.45
2022-11-15T22:55:58.284Z,50.33
2022-11-15T22:58:27.840Z,47.30
2022-11-15T23:00:56.124Z,50.40
2022-11-15T23:03:23.896Z,48.53
2022-11-15T23:05:51.629Z,46.58
2022-11-15T23:08:19.394Z,46.72
2022-11-15T23:11:04.433Z,48.70
2022-11-15T23:13:33.748Z,50.03
2022-11-15T23:16:20.153Z,44.72
2022-11-15T23:18:47.491Z,49.63
2022-11-15T23:21:16.095Z,45.90
2022-11-15T23:23:42.505Z,47.05
2022-11-15T23:26:09.874Z,46.80
2022-11-15T23:28:38.598Z,46.53
2022-11-15T23:31:24.191Z,44.10
2022-11-15T23:34:00.429Z,41.55
2022-11-15T23:36:28.711Z,43.47
2022-11-15T23:38:56.521Z,47.95
2022-11-15T23:41:24.353Z,39.65
2022-11-15T23:43:53.141Z,42.30
2022-11-15T23:46:20.647Z,39.92
2022-11-15T23:48:47.997Z,42.55
2022-11-15T23:51:15.609Z,43.97
2022-11-15T23:53:43.374Z,46.10
2022-11-15T23:56:12.342Z,39.75
2022-11-15T23:58:39.790Z,39.88
